Latest Coastal Weather Observations for Lady Elliot Island

IDQ60701

Issued at 5:12 am EST Friday 22 September 2017 (issued every 10 minutes, with the page automatically refreshed every 10 minutes)

About coastal observations | Map of coastal stations | Coastal observations for QLD | Marine services | Other Formats
Station Details ID: 039059 Name: LADY ELLIOT ISLAND Lat: -24.11 Lon: 152.72 Height: 3.6 m
Data from the previous 72 hours. | See also: Recent months at Lady Elliot Island
Date/Time
EST
Temp
°C
Wind Pressure Rain since
9am
mm
Weather Cloud Vis
km
Sea
Height
m
Swell
Dir  Spd
kts
Gust
kts
hPa Trend Height
m
Period
s
Dir
22/05:00am 22.4 N 7 11 1017.2 - 0.0 - - - - - - -
22/04:30am 22.3 N 7 10 1017.1 - 0.0 - - - - - - -
22/04:00am 22.4 NNE 7 10 1016.6 - 0.0 - - - - - - -
22/03:30am 22.5 N 8 13 1016.6 - 0.0 - - - - - - -
22/03:00am 22.3 NNE 7 13 1016.8 - 0.0 - - - - - - -
22/02:30am 22.2 N 6 9 1017.1 - 0.0 - - - - - - -
22/02:00am 22.2 NNE 6 10 1017.5 - 0.0 - - - - - - -
22/01:30am 22.3 NNE 7 11 1017.6 - 0.0 - - - - - - -
22/01:00am 22.4 NNE 6 10 1017.9 - 0.0 - - - - - - -
22/12:30am 22.3 NNE 7 12 1018.1 - 0.0 - - - - - - -
22/12:00am 22.4 NNE 7 13 1018.2 - 0.0 - - - - - - -
 
Date/Time
EST
Temp
°C
Wind Pressure Rain since
9am
mm
Weather Cloud Vis
km
Sea
Height
m
Swell
Dir  Spd
kts
Gust
kts
hPa Trend Height
m
Period
s
Dir
21/11:30pm 22.5 NNE 7 11 1018.3 - 0.0 - - - - - - -
21/11:00pm 22.5 NNE 5 8 1018.1 - 0.0 - - - - - - -
21/10:30pm 22.2 NNE 5 8 1017.9 - 0.0 - - - - - - -
21/10:00pm 22.4 N 7 11 1017.8 - 0.0 - - - - - - -
21/09:30pm 22.3 NNE 6 9 1017.9 - 0.0 - - - - - - -
21/09:00pm 22.5 NNE 5 8 1018.3 - 0.0 - - - - - - -
21/08:30pm 22.4 NNE 6 9 1018.0 - 0.0 - - - - - - -
21/08:00pm 22.5 NNE 6 9 1018.2 - 0.0 - - - - - - -
21/07:30pm 22.5 NNE 6 9 1017.8 - 0.0 - - - - - - -
21/07:00pm 22.7 NNE 6 10 1017.6 - 0.0 - - - - - - -
21/06:30pm 22.6 NNE 7 10 1017.3 - 0.0 - - - - - - -
21/06:00pm 22.7 NNE 7 11 1016.7 - 0.0 - - - - - - -
21/05:30pm 23.1 NNE 7 10 1016.7 - 0.0 - - - - - - -
21/05:00pm 23.8 NNE 5 9 1016.5 - 0.0 - - - - - - -
21/04:30pm 24.4 NNE 6 8 1016.3 - 0.0 - - - - - - -
21/04:00pm 24.7 NNE 6 10 1016.1 - 0.0 - - - - - - -
21/03:30pm 25.0 NNE 7 11 1016.0 - 0.0 - - - - - - -
21/03:00pm 25.3 NNE 6 11 1015.9 - 0.0 - - - - - - -
21/02:30pm 25.5 NE 6 9 1016.0 - 0.0 - - - - - - -
21/02:00pm 25.7 NNE 6 8 1016.4 - 0.0 - - - - - - -
21/01:30pm 26.0 NNE 6 8 1016.7 - 0.0 - - - - - - -
21/01:00pm 26.5 NNE 6 8 1017.0 - 0.0 - - - - - - -
21/12:30pm 25.9 NNE 6 8 1017.4 - 0.0 - - - - - - -
21/12:00pm 25.9 NNE 6 9 1017.7 - 0.0 - - - - - - -
21/11:30am 25.8 NNE 6 9 1018.2 - 0.0 - - - - - - -
21/11:00am 26.3 NNE 5 7 1018.7 - 0.0 - - - - - - -
21/10:30am 25.5 NE 5 6 1018.9 - 0.0 - - - - - - -
21/10:00am 25.4 NNE 5 6 1019.2 - 0.0 - - - - - - -
21/09:30am 25.1 NE 5 6 1019.2 - 0.0 - - - - - - -
21/09:00am 25.0 NE 4 6 1019.4 - 0.0 - - - - - - -
21/08:30am 24.7 NNE 4 6 1019.3 - 0.0 - - - - - - -
21/08:00am 24.3 N 4 5 1019.1 - 0.0 - - - - - - -
21/07:30am 24.0 NNE 3 5 1019.0 - 0.0 - - - - - - -
21/07:00am 22.8 N 4 5 1018.7 - 0.0 - - - - - - -
21/06:30am 22.3 NNE 4 7 1018.2 - 0.0 - - - - - - -
21/06:00am 22.0 NNE 5 7 1017.8 - 0.0 - - - - - - -
21/05:30am 21.9 NNE 4 7 1017.5 - 0.0 - - - - - - -
21/05:00am 21.6 NNE 5 8 1017.2 - 0.0 - - - - - - -
21/04:30am 21.7 NNE 5 8 1016.8 - 0.0 - - - - - - -
21/04:00am 21.4 NE 4 6 1016.5 - 0.0 - - - - - - -
21/03:30am 21.2 ENE 3 5 1016.6 - 0.0 - - - - - - -
21/03:00am 20.6 E 3 5 1016.6 - 0.0 - - - - - - -
21/02:30am 20.1 CALM 0 0 1016.6 - 0.0 - - - - - - -
21/02:00am 21.1 E 3 5 1016.7 - 0.0 - - - - - - -
21/01:30am 20.2 CALM 0 0 1016.9 - 0.0 - - - - - - -
21/01:00am 20.1 CALM 0 0 1017.2 - 0.0 - - - - - - -
21/12:30am 20.2 CALM 0 0 1017.4 - 0.0 - - - - - - -
21/12:00am 20.7 CALM 0 3 1017.2 - 0.0 - - - - - - -
 
Date/Time
EST
Temp
°C
Wind Pressure Rain since
9am
mm
Weather Cloud Vis
km
Sea
Height
m
Swell
Dir  Spd
kts
Gust
kts
hPa Trend Height
m
Period
s
Dir
20/11:30pm 21.8 NE 2 5 1017.3 - 0.0 - - - - - - -
20/11:00pm 22.0 NNE 3 6 1017.4 - 0.0 - - - - - - -
20/10:30pm 22.2 NNE 4 5 1017.5 - 0.0 - - - - - - -
20/10:00pm 22.3 NE 1 5 1017.4 - 0.0 - - - - - - -
20/09:30pm 22.0 NE 3 6 1017.2 - 0.0 - - - - - - -
20/09:00pm 21.9 NE 4 6 1017.0 - 0.0 - - - - - - -
20/08:30pm 22.0 NE 3 6 1017.0 - 0.0 - - - - - - -
20/08:00pm 22.0 ENE 5 7 1016.9 - 0.0 - - - - - - -
20/07:30pm 21.8 NE 3 5 1016.7 - 0.0 - - - - - - -
20/07:00pm 21.8 NE 3 5 1016.3 - 0.0 - - - - - - -
20/06:30pm 22.0 NE 3 5 1016.2 - 0.0 - - - - - - -
20/06:00pm 22.2 NNE 3 6 1015.7 - 0.0 - - - - - - -
20/05:30pm 22.8 NNE 4 7 1015.2 - 0.0 - - - - - - -
20/05:00pm 23.6 NNE 5 8 1015.0 - 0.0 - - - - - - -
20/04:30pm 24.0 NNE 5 8 1015.0 - 0.0 - - - - - - -
20/04:00pm 24.4 NNE 6 9 1014.6 - 0.0 - - - - - - -
20/03:30pm 24.6 NNE 6 9 1014.7 - 0.0 - - - - - - -
20/03:00pm 25.1 N 6 9 1015.0 - 0.0 - - - - - - -
20/02:30pm 24.4 N 6 8 1015.3 - 0.0 - - - - - - -
20/02:00pm 25.7 N 6 8 1015.4 - 0.0 - - - - - - -
20/01:30pm 24.6 NNW 6 8 1015.8 - 0.0 - - - - - - -
20/01:00pm 25.0 NNW 6 8 1016.2 - 0.0 - - - - - - -
20/12:30pm 24.5 NNW 6 9 1016.8 - 0.0 - - - - - - -
20/12:00pm 25.3 NW 5 8 1017.3 - 0.0 - - - - - - -
20/11:30am 24.9 WNW 6 9 1017.8 - 0.0 - - - - - - -
20/11:00am 24.0 WNW 7 9 1018.2 - 0.0 - - - - - - -
20/10:30am 24.0 WNW 7 8 1018.6 - 0.0 - - - - - - -
20/10:00am 24.0 WNW 6 8 1018.8 - 0.0 - - - - - - -
20/09:30am 23.8 W 7 8 1019.0 - 0.0 - - - - - - -
20/09:00am 24.0 W 7 9 1019.1 - 0.0 - - - - - - -
20/08:30am 23.5 WNW 7 10 1019.4 - 0.0 - - - - - - -
20/08:00am 23.0 WNW 6 8 1019.1 - 0.0 - - - - - - -
20/07:30am 22.7 W 6 9 1019.3 - 0.0 - - - - - - -
20/07:00am 22.2 W 6 8 1019.0 - 0.0 - - - - - - -
20/06:30am 21.9 WNW 5 8 1018.6 - 0.0 - - - - - - -
20/06:00am 22.0 W 7 10 1018.8 - 0.0 - - - - - - -
20/05:30am 22.0 WNW 7 10 1018.2 - 0.0 - - - - - - -
20/05:00am 22.0 WNW 6 9 1017.4 - 0.0 - - - - - - -
20/04:30am 21.9 NW 6 9 1016.9 - 0.0 - - - - - - -
20/04:00am 21.9 NW 6 8 1016.2 - 0.0 - - - - - - -
20/03:30am 21.9 NW 6 9 1016.6 - 0.0 - - - - - - -
20/03:00am 22.0 NW 7 11 1016.6 - 0.0 - - - - - - -
20/02:30am 22.2 NW 7 11 1016.9 - 0.0 - - - - - - -
20/02:00am 22.2 NNW 7 11 1016.9 - 0.0 - - - - - - -
20/01:30am 22.2 NNW 7 10 1017.2 - 0.0 - - - - - - -
20/01:00am 22.0 N 8 11 1017.2 - 0.0 - - - - - - -
20/12:30am 22.2 NNW 8 11 1017.6 - 0.0 - - - - - - -
20/12:00am 22.2 NNW 7 11 1018.2 - 0.0 - - - - - - -
 
Date/Time
EST
Temp
°C
Wind Pressure Rain since
9am
mm
Weather Cloud Vis
km
Sea
Height
m
Swell
Dir  Spd
kts
Gust
kts
hPa Trend Height
m
Period
s
Dir
19/11:30pm 22.2 NNW 8 12 1018.6 - 0.0 - - - - - - -
19/11:00pm 22.2 N 7 11 1018.4 - 0.0 - - - - - - -
19/10:30pm 22.0 NNE 5 7 1018.0 - 0.0 - - - - - - -
19/10:00pm 22.2 N 6 9 1018.6 - 0.0 - - - - - - -
19/09:30pm 22.2 N 6 9 1019.2 - 0.0 - - - - - - -
19/09:00pm 22.2 N 6 9 1019.4 - 0.0 - - - - - - -
19/08:30pm 22.2 N 6 10 1019.6 - 0.0 - - - - - - -
19/08:00pm 22.3 N 7 11 1019.9 - 0.0 - - - - - - -
19/07:30pm 22.3 NNE 6 10 1019.5 - 0.0 - - - - - - -
19/07:00pm 22.3 N 5 9 1019.9 - 0.0 - - - - - - -
19/06:30pm 22.2 NNE 5 8 1019.6 - 0.0 - - - - - - -
19/06:00pm 22.2 NNE 6 9 1018.8 - 0.0 - - - - - - -
19/05:30pm 22.4 NNE 5 8 1018.7 - 0.0 - - - - - - -
19/05:00pm 22.5 NE 5 7 1018.3 - 0.0 - - - - - - -
19/04:30pm 22.9 NNE 5 8 1018.7 - 0.0 - - - - - - -
19/04:00pm 23.1 N 5 8 1018.6 - 0.0 - - - - - - -
19/03:30pm 23.5 N 6 8 1019.0 - 0.0 - - - - - - -
19/03:00pm 23.6 NNW 7 9 1019.4 - 0.0 - - - - - - -
19/02:30pm 23.5 N 6 8 1019.4 - 0.0 - - - - - - -
19/02:00pm 25.6 N 6 9 1019.5 - 0.0 - - - - - - -
19/01:30pm 25.1 NNE 5 7 1020.0 - 0.0 - - - - - - -
19/01:00pm 25.1 NE 6 9 1020.2 - 0.0 - - - - - - -
19/12:30pm 25.3 NE 5 8 1020.5 - 0.0 - - - - - - -
19/12:00pm 24.7 NE 5 9 1020.9 - 0.0 - - - - - - -
19/11:30am 25.1 ENE 5 7 1021.4 - 0.0 - - - - - - -
19/11:00am 24.8 NE 6 8 1021.8 - 0.0 - - - - - - -
19/10:30am 25.2 NE 5 8 1022.3 - 0.0 - - - - - - -
19/10:00am 25.2 NE 6 9 1022.5 - 0.0 - - - - - - -
19/09:30am 25.6 NE 6 9 1022.5 - 0.0 - - - - - - -
19/09:00am 24.7 ENE 6 9 1022.5 - 0.0 - - - - - - -
19/08:30am 24.3 NE 6 11 1022.7 - 0.0 - - - - - - -
19/08:00am 23.5 NE 6 9 1022.8 - 0.0 - - - - - - -
19/07:30am 23.5 NE 5 8 1022.7 - 0.0 - - - - - - -
19/07:00am 22.8 NE 5 9 1022.2 - 0.0 - - - - - - -
19/06:30am 22.2 NE 6 9 1021.9 - 0.0 - - - - - - -
19/06:00am 21.7 NE 6 9 1021.8 - 0.0 - - - - - - -
19/05:30am 21.4 NE 5 8 1021.5 - 0.0 - - - - - - -

Other Formats:

Comma delimited format used in spreadsheet applications
http://www.bom.gov.au/fwo/IDQ60701/IDQ60701.94388.axf

JavaScript Object Notation format (JSON) in row-major order
http://www.bom.gov.au/fwo/IDQ60701/IDQ60701.94388.json